sensor_id;sensor_type;location;lat;lon;timestamp;P1;durP1;ratioP1;P2;durP2;ratioP2
44036;SDS011;62488;-37.670;-63.532;2022-08-02T00:00:56;21.58;;;19.35;;
44036;SDS011;62488;-37.670;-63.532;2022-08-02T00:03:23;23.10;;;19.95;;
44036;SDS011;62488;-37.670;-63.532;2022-08-02T00:05:50;22.30;;;19.98;;
44036;SDS011;62488;-37.670;-63.532;2022-08-02T00:08:17;18.63;;;16.85;;
44036;SDS011;62488;-37.670;-63.532;2022-08-02T00:10:45;24.17;;;18.55;;
44036;SDS011;62488;-37.670;-63.532;2022-08-02T00:13:12;23.77;;;19.55;;
44036;SDS011;62488;-37.670;-63.532;2022-08-02T00:15:39;20.40;;;18.50;;
44036;SDS011;62488;-37.670;-63.532;2022-08-02T00:18:06;22.17;;;19.85;;
44036;SDS011;62488;-37.670;-63.532;2022-08-02T00:20:33;21.05;;;18.83;;
44036;SDS011;62488;-37.670;-63.532;2022-08-02T00:23:00;20.02;;;18.02;;
44036;SDS011;62488;-37.670;-63.532;2022-08-02T00:25:27;21.05;;;18.40;;
44036;SDS011;62488;-37.670;-63.532;2022-08-02T00:27:54;21.27;;;18.30;;
44036;SDS011;62488;-37.670;-63.532;2022-08-02T00:30:21;21.05;;;18.50;;
44036;SDS011;62488;-37.670;-63.532;2022-08-02T00:32:48;21.58;;;19.02;;
44036;SDS011;62488;-37.670;-63.532;2022-08-02T00:35:15;19.48;;;17.20;;
44036;SDS011;62488;-37.670;-63.532;2022-08-02T00:37:42;22.15;;;16.98;;
44036;SDS011;62488;-37.670;-63.532;2022-08-02T00:40:09;19.73;;;17.63;;
44036;SDS011;62488;-37.670;-63.532;2022-08-02T00:42:37;19.27;;;17.40;;
44036;SDS011;62488;-37.670;-63.532;2022-08-02T00:45:05;19.52;;;17.75;;
44036;SDS011;62488;-37.670;-63.532;2022-08-02T00:47:33;19.70;;;17.60;;
44036;SDS011;62488;-37.670;-63.532;2022-08-02T00:50:00;19.40;;;17.42;;
44036;SDS011;62488;-37.670;-63.532;2022-08-02T00:52:28;19.85;;;17.55;;
44036;SDS011;62488;-37.670;-63.532;2022-08-02T00:54:57;28.20;;;18.25;;
44036;SDS011;62488;-37.670;-63.532;2022-08-02T00:57:31;25.35;;;18.48;;
44036;SDS011;62488;-37.670;-63.532;2022-08-02T00:59:58;23.35;;;20.95;;
44036;SDS011;62488;-37.670;-63.532;2022-08-02T01:02:25;23.30;;;20.83;;
44036;SDS011;62488;-37.670;-63.532;2022-08-02T01:04:53;22.50;;;20.15;;
44036;SDS011;62488;-37.670;-63.532;2022-08-02T01:07:20;22.25;;;20.00;;
44036;SDS011;62488;-37.670;-63.532;2022-08-02T01:09:47;20.30;;;17.80;;
44036;SDS011;62488;-37.670;-63.532;2022-08-02T01:12:14;19.80;;;17.73;;
44036;SDS011;62488;-37.670;-63.532;2022-08-02T01:14:43;21.92;;;17.42;;
44036;SDS011;62488;-37.670;-63.532;2022-08-02T01:17:19;19.48;;;16.25;;
44036;SDS011;62488;-37.670;-63.532;2022-08-02T01:28:58;19.00;;;17.20;;
44036;SDS011;62488;-37.670;-63.532;2022-08-02T01:31:37;20.98;;;16.52;;
44036;SDS011;62488;-37.670;-63.532;2022-08-02T01:37:19;20.17;;;18.10;;
44036;SDS011;62488;-37.670;-63.532;2022-08-02T01:39:56;19.20;;;17.38;;
44036;SDS011;62488;-37.670;-63.532;2022-08-02T01:42:30;20.60;;;17.88;;
44036;SDS011;62488;-37.670;-63.532;2022-08-02T01:44:57;21.75;;;19.05;;
44036;SDS011;62488;-37.670;-63.532;2022-08-02T01:47:28;25.63;;;18.52;;
44036;SDS011;62488;-37.670;-63.532;2022-08-02T01:49:58;20.50;;;18.35;;
44036;SDS011;62488;-37.670;-63.532;2022-08-02T01:52:28;22.60;;;20.23;;
44036;SDS011;62488;-37.670;-63.532;2022-08-02T01:57:30;21.73;;;19.60;;
44036;SDS011;62488;-37.670;-63.532;2022-08-02T02:00:12;20.88;;;18.95;;
44036;SDS011;62488;-37.670;-63.532;2022-08-02T02:02:41;22.13;;;19.73;;
44036;SDS011;62488;-37.670;-63.532;2022-08-02T02:05:16;21.63;;;19.52;;
44036;SDS011;62488;-37.670;-63.532;2022-08-02T02:07:45;30.30;;;19.70;;
44036;SDS011;62488;-37.670;-63.532;2022-08-02T02:10:19;26.50;;;19.75;;
44036;SDS011;62488;-37.670;-63.532;2022-08-02T02:12:54;23.60;;;19.45;;
44036;SDS011;62488;-37.670;-63.532;2022-08-02T02:15:28;22.48;;;20.02;;
44036;SDS011;62488;-37.670;-63.532;2022-08-02T02:17:57;22.65;;;20.27;;
44036;SDS011;62488;-37.670;-63.532;2022-08-02T02:22:54;20.58;;;18.67;;
44036;SDS011;62488;-37.670;-63.532;2022-08-02T02:25:21;21.70;;;19.52;;
44036;SDS011;62488;-37.670;-63.532;2022-08-02T02:27:53;21.60;;;19.38;;
44036;SDS011;62488;-37.670;-63.532;2022-08-02T02:30:25;23.20;;;20.77;;
44036;SDS011;62488;-37.670;-63.532;2022-08-02T02:32:54;22.85;;;19.88;;
44036;SDS011;62488;-37.670;-63.532;2022-08-02T02:37:52;19.95;;;17.83;;
44036;SDS011;62488;-37.670;-63.532;2022-08-02T02:40:21;23.77;;;18.15;;
44036;SDS011;62488;-37.670;-63.532;2022-08-02T02:42:49;21.58;;;17.73;;
44036;SDS011;62488;-37.670;-63.532;2022-08-02T02:45:16;43.97;;;19.92;;
44036;SDS011;62488;-37.670;-63.532;2022-08-02T02:47:46;20.05;;;17.75;;
44036;SDS011;62488;-37.670;-63.532;2022-08-02T02:50:15;22.92;;;18.23;;
44036;SDS011;62488;-37.670;-63.532;2022-08-02T02:52:43;21.20;;;19.23;;
44036;SDS011;62488;-37.670;-63.532;2022-08-02T02:55:10;21.30;;;19.25;;
44036;SDS011;62488;-37.670;-63.532;2022-08-02T02:57:38;21.38;;;19.38;;
44036;SDS011;62488;-37.670;-63.532;2022-08-02T03:00:07;22.65;;;20.50;;
44036;SDS011;62488;-37.670;-63.532;2022-08-02T03:02:37;22.48;;;20.17;;
44036;SDS011;62488;-37.670;-63.532;2022-08-02T03:05:05;25.52;;;19.40;;
44036;SDS011;62488;-37.670;-63.532;2022-08-02T03:07:33;21.27;;;19.00;;
44036;SDS011;62488;-37.670;-63.532;2022-08-02T03:10:04;22.38;;;19.92;;
44036;SDS011;62488;-37.670;-63.532;2022-08-02T03:12:32;20.38;;;17.88;;
44036;SDS011;62488;-37.670;-63.532;2022-08-02T03:15:02;18.67;;;16.92;;
44036;SDS011;62488;-37.670;-63.532;2022-08-02T03:17:41;19.90;;;17.77;;
44036;SDS011;62488;-37.670;-63.532;2022-08-02T03:20:11;20.15;;;18.25;;
44036;SDS011;62488;-37.670;-63.532;2022-08-02T03:22:43;20.38;;;17.33;;
44036;SDS011;62488;-37.670;-63.532;2022-08-02T03:25:11;20.40;;;18.35;;
44036;SDS011;62488;-37.670;-63.532;2022-08-02T03:27:39;19.20;;;17.40;;
44036;SDS011;62488;-37.670;-63.532;2022-08-02T03:30:08;19.65;;;17.65;;
44036;SDS011;62488;-37.670;-63.532;2022-08-02T03:32:37;19.83;;;17.77;;
44036;SDS011;62488;-37.670;-63.532;2022-08-02T03:35:06;18.33;;;16.50;;
44036;SDS011;62488;-37.670;-63.532;2022-08-02T03:37:36;19.60;;;17.70;;
44036;SDS011;62488;-37.670;-63.532;2022-08-02T03:40:07;19.77;;;17.92;;
44036;SDS011;62488;-37.670;-63.532;2022-08-02T03:42:36;20.13;;;18.13;;
44036;SDS011;62488;-37.670;-63.532;2022-08-02T03:45:06;23.52;;;18.08;;
44036;SDS011;62488;-37.670;-63.532;2022-08-02T03:47:36;20.00;;;17.70;;
44036;SDS011;62488;-37.670;-63.532;2022-08-02T03:50:05;21.27;;;19.27;;
44036;SDS011;62488;-37.670;-63.532;2022-08-02T03:52:36;21.10;;;18.90;;
44036;SDS011;62488;-37.670;-63.532;2022-08-02T03:55:07;20.65;;;18.75;;
44036;SDS011;62488;-37.670;-63.532;2022-08-02T03:57:39;19.63;;;17.80;;
44036;SDS011;62488;-37.670;-63.532;2022-08-02T04:00:08;20.38;;;18.48;;
44036;SDS011;62488;-37.670;-63.532;2022-08-02T04:02:38;18.80;;;16.95;;
44036;SDS011;62488;-37.670;-63.532;2022-08-02T04:05:05;20.17;;;18.23;;
44036;SDS011;62488;-37.670;-63.532;2022-08-02T04:07:33;19.95;;;17.70;;
44036;SDS011;62488;-37.670;-63.532;2022-08-02T04:10:00;21.02;;;18.83;;
44036;SDS011;62488;-37.670;-63.532;2022-08-02T04:12:27;19.98;;;18.17;;
44036;SDS011;62488;-37.670;-63.532;2022-08-02T04:14:57;19.83;;;17.77;;
44036;SDS011;62488;-37.670;-63.532;2022-08-02T04:17:24;20.30;;;18.40;;
44036;SDS011;62488;-37.670;-63.532;2022-08-02T04:20:00;19.05;;;17.10;;
44036;SDS011;62488;-37.670;-63.532;2022-08-02T04:22:38;18.83;;;16.90;;
44036;SDS011;62488;-37.670;-63.532;2022-08-02T04:25:11;19.30;;;17.50;;
44036;SDS011;62488;-37.670;-63.532;2022-08-02T04:27:39;19.05;;;15.75;;
44036;SDS011;62488;-37.670;-63.532;2022-08-02T04:30:07;18.13;;;16.25;;
44036;SDS011;62488;-37.670;-63.532;2022-08-02T04:32:35;23.02;;;16.52;;
44036;SDS011;62488;-37.670;-63.532;2022-08-02T04:35:03;22.13;;;17.50;;
44036;SDS011;62488;-37.670;-63.532;2022-08-02T04:37:32;18.48;;;16.75;;
44036;SDS011;62488;-37.670;-63.532;2022-08-02T04:40:00;19.88;;;17.92;;
44036;SDS011;62488;-37.670;-63.532;2022-08-02T04:42:27;19.55;;;17.55;;
44036;SDS011;62488;-37.670;-63.532;2022-08-02T04:44:54;19.88;;;17.98;;
44036;SDS011;62488;-37.670;-63.532;2022-08-02T04:47:22;19.05;;;17.27;;
44036;SDS011;62488;-37.670;-63.532;2022-08-02T04:49:49;19.40;;;17.38;;
44036;SDS011;62488;-37.670;-63.532;2022-08-02T04:52:16;18.73;;;16.77;;
44036;SDS011;62488;-37.670;-63.532;2022-08-02T04:54:43;18.98;;;17.20;;
44036;SDS011;62488;-37.670;-63.532;2022-08-02T04:57:10;18.55;;;16.75;;
44036;SDS011;62488;-37.670;-63.532;2022-08-02T04:59:55;19.63;;;17.67;;
44036;SDS011;62488;-37.670;-63.532;2022-08-02T05:02:22;20.02;;;17.92;;
44036;SDS011;62488;-37.670;-63.532;2022-08-02T05:04:49;20.45;;;18.45;;
44036;SDS011;62488;-37.670;-63.532;2022-08-02T05:07:16;20.00;;;18.02;;
44036;SDS011;62488;-37.670;-63.532;2022-08-02T05:09:43;20.13;;;18.08;;
44036;SDS011;62488;-37.670;-63.532;2022-08-02T05:12:10;20.98;;;18.92;;
44036;SDS011;62488;-37.670;-63.532;2022-08-02T05:14:37;19.73;;;17.48;;
44036;SDS011;62488;-37.670;-63.532;2022-08-02T05:17:04;19.95;;;18.15;;
44036;SDS011;62488;-37.670;-63.532;2022-08-02T05:19:31;21.38;;;19.30;;
44036;SDS011;62488;-37.670;-63.532;2022-08-02T05:21:59;21.40;;;19.30;;
44036;SDS011;62488;-37.670;-63.532;2022-08-02T05:24:26;21.50;;;19.20;;
44036;SDS011;62488;-37.670;-63.532;2022-08-02T05:26:53;21.55;;;19.55;;
44036;SDS011;62488;-37.670;-63.532;2022-08-02T05:29:20;22.15;;;20.05;;
44036;SDS011;62488;-37.670;-63.532;2022-08-02T05:31:47;24.20;;;21.58;;
44036;SDS011;62488;-37.670;-63.532;2022-08-02T05:34:14;22.80;;;20.60;;
44036;SDS011;62488;-37.670;-63.532;2022-08-02T05:36:42;22.45;;;20.20;;
44036;SDS011;62488;-37.670;-63.532;2022-08-02T05:39:09;22.60;;;20.52;;
44036;SDS011;62488;-37.670;-63.532;2022-08-02T05:41:36;24.55;;;21.35;;
44036;SDS011;62488;-37.670;-63.532;2022-08-02T05:44:03;24.55;;;22.00;;
44036;SDS011;62488;-37.670;-63.532;2022-08-02T05:46:30;23.40;;;21.08;;
44036;SDS011;62488;-37.670;-63.532;2022-08-02T05:48:57;24.58;;;22.25;;
44036;SDS011;62488;-37.670;-63.532;2022-08-02T05:51:28;24.70;;;22.33;;
44036;SDS011;62488;-37.670;-63.532;2022-08-02T05:54:14;23.48;;;21.13;;
44036;SDS011;62488;-37.670;-63.532;2022-08-02T05:57:10;23.90;;;21.55;;
44036;SDS011;62488;-37.670;-63.532;2022-08-02T05:59:53;25.98;;;20.63;;
44036;SDS011;62488;-37.670;-63.532;2022-08-02T06:05:21;22.70;;;20.45;;
44036;SDS011;62488;-37.670;-63.532;2022-08-02T06:07:49;25.02;;;22.58;;
44036;SDS011;62488;-37.670;-63.532;2022-08-02T06:10:19;23.80;;;21.55;;
44036;SDS011;62488;-37.670;-63.532;2022-08-02T06:12:52;26.73;;;24.15;;
44036;SDS011;62488;-37.670;-63.532;2022-08-02T06:15:33;23.55;;;21.35;;
44036;SDS011;62488;-37.670;-63.532;2022-08-02T06:18:01;24.00;;;21.48;;
44036;SDS011;62488;-37.670;-63.532;2022-08-02T06:20:29;24.30;;;22.00;;
44036;SDS011;62488;-37.670;-63.532;2022-08-02T06:23:03;24.60;;;22.02;;
44036;SDS011;62488;-37.670;-63.532;2022-08-02T06:25:33;25.35;;;22.88;;
44036;SDS011;62488;-37.670;-63.532;2022-08-02T06:28:03;24.17;;;21.88;;
44036;SDS011;62488;-37.670;-63.532;2022-08-02T06:30:32;26.40;;;23.92;;
44036;SDS011;62488;-37.670;-63.532;2022-08-02T06:32:59;24.67;;;22.42;;
44036;SDS011;62488;-37.670;-63.532;2022-08-02T06:35:51;27.33;;;24.75;;
44036;SDS011;62488;-37.670;-63.532;2022-08-02T06:38:32;26.33;;;23.65;;
44036;SDS011;62488;-37.670;-63.532;2022-08-02T06:41:15;26.98;;;24.38;;
44036;SDS011;62488;-37.670;-63.532;2022-08-02T06:43:49;26.15;;;23.58;;
44036;SDS011;62488;-37.670;-63.532;2022-08-02T06:46:20;26.40;;;23.92;;
44036;SDS011;62488;-37.670;-63.532;2022-08-02T06:48:47;25.23;;;22.67;;
44036;SDS011;62488;-37.670;-63.532;2022-08-02T06:51:14;25.52;;;22.63;;
44036;SDS011;62488;-37.670;-63.532;2022-08-02T06:53:42;28.58;;;25.92;;
44036;SDS011;62488;-37.670;-63.532;2022-08-02T06:56:10;26.90;;;24.30;;
44036;SDS011;62488;-37.670;-63.532;2022-08-02T06:58:38;27.48;;;24.80;;
44036;SDS011;62488;-37.670;-63.532;2022-08-02T07:01:05;26.25;;;23.95;;
44036;SDS011;62488;-37.670;-63.532;2022-08-02T07:03:34;26.60;;;24.02;;
44036;SDS011;62488;-37.670;-63.532;2022-08-02T07:06:02;27.58;;;24.92;;
44036;SDS011;62488;-37.670;-63.532;2022-08-02T07:08:30;25.85;;;23.15;;
44036;SDS011;62488;-37.670;-63.532;2022-08-02T07:10:58;25.50;;;23.08;;
44036;SDS011;62488;-37.670;-63.532;2022-08-02T07:13:28;25.98;;;23.48;;
44036;SDS011;62488;-37.670;-63.532;2022-08-02T07:15:56;27.42;;;24.70;;
44036;SDS011;62488;-37.670;-63.532;2022-08-02T07:18:23;26.38;;;23.73;;
44036;SDS011;62488;-37.670;-63.532;2022-08-02T07:20:50;26.92;;;24.42;;
44036;SDS011;62488;-37.670;-63.532;2022-08-02T07:23:18;25.88;;;23.42;;
44036;SDS011;62488;-37.670;-63.532;2022-08-02T07:25:45;26.85;;;24.33;;
44036;SDS011;62488;-37.670;-63.532;2022-08-02T07:28:13;26.48;;;23.95;;
44036;SDS011;62488;-37.670;-63.532;2022-08-02T07:30:41;26.88;;;24.00;;
44036;SDS011;62488;-37.670;-63.532;2022-08-02T07:33:08;24.85;;;22.67;;
44036;SDS011;62488;-37.670;-63.532;2022-08-02T07:35:35;25.23;;;22.92;;
44036;SDS011;62488;-37.670;-63.532;2022-08-02T07:38:02;27.85;;;25.25;;
44036;SDS011;62488;-37.670;-63.532;2022-08-02T07:40:30;26.80;;;24.33;;
44036;SDS011;62488;-37.670;-63.532;2022-08-02T07:42:57;26.08;;;23.67;;
44036;SDS011;62488;-37.670;-63.532;2022-08-02T07:45:24;25.80;;;23.13;;
44036;SDS011;62488;-37.670;-63.532;2022-08-02T07:47:52;25.50;;;23.10;;
44036;SDS011;62488;-37.670;-63.532;2022-08-02T07:50:19;26.05;;;23.05;;
44036;SDS011;62488;-37.670;-63.532;2022-08-02T07:52:47;26.92;;;24.23;;
44036;SDS011;62488;-37.670;-63.532;2022-08-02T07:55:15;24.42;;;22.00;;
44036;SDS011;62488;-37.670;-63.532;2022-08-02T07:57:42;24.80;;;22.33;;
44036;SDS011;62488;-37.670;-63.532;2022-08-02T08:00:11;24.95;;;22.58;;
44036;SDS011;62488;-37.670;-63.532;2022-08-02T08:02:38;25.85;;;23.20;;
44036;SDS011;62488;-37.670;-63.532;2022-08-02T08:05:06;27.45;;;24.75;;
44036;SDS011;62488;-37.670;-63.532;2022-08-02T08:07:33;25.10;;;22.80;;
44036;SDS011;62488;-37.670;-63.532;2022-08-02T08:10:01;26.90;;;24.33;;
44036;SDS011;62488;-37.670;-63.532;2022-08-02T08:12:28;27.63;;;24.90;;
44036;SDS011;62488;-37.670;-63.532;2022-08-02T08:14:55;28.65;;;25.80;;
44036;SDS011;62488;-37.670;-63.532;2022-08-02T08:17:22;27.77;;;25.02;;
44036;SDS011;62488;-37.670;-63.532;2022-08-02T08:19:49;29.13;;;26.23;;
44036;SDS011;62488;-37.670;-63.532;2022-08-02T08:22:16;27.75;;;23.42;;
44036;SDS011;62488;-37.670;-63.532;2022-08-02T08:24:44;29.38;;;26.52;;
44036;SDS011;62488;-37.670;-63.532;2022-08-02T08:27:12;28.15;;;25.48;;
44036;SDS011;62488;-37.670;-63.532;2022-08-02T08:29:40;29.33;;;26.42;;
44036;SDS011;62488;-37.670;-63.532;2022-08-02T08:32:07;26.30;;;23.80;;
44036;SDS011;62488;-37.670;-63.532;2022-08-02T08:34:35;29.38;;;26.38;;
44036;SDS011;62488;-37.670;-63.532;2022-08-02T08:37:02;30.75;;;27.85;;
44036;SDS011;62488;-37.670;-63.532;2022-08-02T08:39:29;28.35;;;25.65;;
44036;SDS011;62488;-37.670;-63.532;2022-08-02T08:41:56;29.67;;;25.05;;
44036;SDS011;62488;-37.670;-63.532;2022-08-02T08:44:24;27.20;;;24.58;;
44036;SDS011;62488;-37.670;-63.532;2022-08-02T08:46:51;29.50;;;26.73;;
44036;SDS011;62488;-37.670;-63.532;2022-08-02T08:51:47;27.98;;;25.27;;
44036;SDS011;62488;-37.670;-63.532;2022-08-02T08:54:18;29.88;;;26.73;;
44036;SDS011;62488;-37.670;-63.532;2022-08-02T08:56:48;30.13;;;26.55;;
44036;SDS011;62488;-37.670;-63.532;2022-08-02T08:59:16;27.02;;;24.42;;
44036;SDS011;62488;-37.670;-63.532;2022-08-02T09:01:44;27.10;;;24.50;;
44036;SDS011;62488;-37.670;-63.532;2022-08-02T09:04:11;26.77;;;23.92;;
44036;SDS011;62488;-37.670;-63.532;2022-08-02T09:06:38;23.80;;;21.42;;
44036;SDS011;62488;-37.670;-63.532;2022-08-02T09:09:07;26.08;;;23.48;;
44036;SDS011;62488;-37.670;-63.532;2022-08-02T09:11:34;26.05;;;23.58;;
44036;SDS011;62488;-37.670;-63.532;2022-08-02T09:14:01;25.55;;;22.95;;
44036;SDS011;62488;-37.670;-63.532;2022-08-02T09:16:36;25.90;;;23.10;;
44036;SDS011;62488;-37.670;-63.532;2022-08-02T09:19:17;27.13;;;24.42;;
44036;SDS011;62488;-37.670;-63.532;2022-08-02T09:21:49;24.88;;;22.38;;
44036;SDS011;62488;-37.670;-63.532;2022-08-02T09:24:25;24.08;;;21.80;;
44036;SDS011;62488;-37.670;-63.532;2022-08-02T09:26:52;25.30;;;22.90;;
44036;SDS011;62488;-37.670;-63.532;2022-08-02T09:29:23;25.75;;;23.25;;
44036;SDS011;62488;-37.670;-63.532;2022-08-02T09:31:51;25.23;;;22.60;;
44036;SDS011;62488;-37.670;-63.532;2022-08-02T09:34:50;27.38;;;23.05;;
44036;SDS011;62488;-37.670;-63.532;2022-08-02T09:37:23;25.48;;;22.98;;
44036;SDS011;62488;-37.670;-63.532;2022-08-02T09:39:52;25.15;;;22.65;;
44036;SDS011;62488;-37.670;-63.532;2022-08-02T09:42:20;24.65;;;22.25;;
44036;SDS011;62488;-37.670;-63.532;2022-08-02T09:44:57;26.83;;;24.20;;
44036;SDS011;62488;-37.670;-63.532;2022-08-02T09:47:26;26.50;;;23.60;;
44036;SDS011;62488;-37.670;-63.532;2022-08-02T09:49:55;24.15;;;21.85;;
44036;SDS011;62488;-37.670;-63.532;2022-08-02T09:52:29;26.05;;;23.55;;
44036;SDS011;62488;-37.670;-63.532;2022-08-02T09:55:06;24.88;;;22.38;;
44036;SDS011;62488;-37.670;-63.532;2022-08-02T09:57:33;27.05;;;22.02;;
44036;SDS011;62488;-37.670;-63.532;2022-08-02T10:00:05;25.50;;;23.00;;
44036;SDS011;62488;-37.670;-63.532;2022-08-02T10:02:37;25.58;;;22.92;;
44036;SDS011;62488;-37.670;-63.532;2022-08-02T10:05:04;26.25;;;23.77;;
44036;SDS011;62488;-37.670;-63.532;2022-08-02T10:07:32;31.73;;;23.63;;
44036;SDS011;62488;-37.670;-63.532;2022-08-02T10:09:59;43.10;;;24.88;;
44036;SDS011;62488;-37.670;-63.532;2022-08-02T10:12:27;27.13;;;23.65;;
44036;SDS011;62488;-37.670;-63.532;2022-08-02T10:14:54;26.02;;;23.50;;
44036;SDS011;62488;-37.670;-63.532;2022-08-02T10:17:21;26.33;;;23.63;;
44036;SDS011;62488;-37.670;-63.532;2022-08-02T10:19:49;26.00;;;23.58;;
44036;SDS011;62488;-37.670;-63.532;2022-08-02T10:22:16;24.15;;;21.65;;
44036;SDS011;62488;-37.670;-63.532;2022-08-02T10:24:45;24.70;;;22.20;;
44036;SDS011;62488;-37.670;-63.532;2022-08-02T10:27:13;26.13;;;21.75;;
44036;SDS011;62488;-37.670;-63.532;2022-08-02T10:29:45;24.02;;;21.63;;
44036;SDS011;62488;-37.670;-63.532;2022-08-02T10:32:25;29.27;;;22.25;;
44036;SDS011;62488;-37.670;-63.532;2022-08-02T10:34:59;23.00;;;20.83;;
44036;SDS011;62488;-37.670;-63.532;2022-08-02T10:37:49;24.98;;;21.80;;
44036;SDS011;62488;-37.670;-63.532;2022-08-02T10:40:22;22.90;;;20.63;;
44036;SDS011;62488;-37.670;-63.532;2022-08-02T10:42:55;21.98;;;19.48;;
44036;SDS011;62488;-37.670;-63.532;2022-08-02T10:45:25;22.10;;;19.80;;
44036;SDS011;62488;-37.670;-63.532;2022-08-02T10:48:08;21.70;;;19.58;;
44036;SDS011;62488;-37.670;-63.532;2022-08-02T10:55:55;21.95;;;19.83;;
44036;SDS011;62488;-37.670;-63.532;2022-08-02T10:58:27;21.98;;;19.65;;
44036;SDS011;62488;-37.670;-63.532;2022-08-02T11:03:58;33.10;;;29.77;;
44036;SDS011;62488;-37.670;-63.532;2022-08-02T11:06:25;127.43;;;116.55;;
44036;SDS011;62488;-37.670;-63.532;2022-08-02T11:12:01;202.82;;;185.13;;
44036;SDS011;62488;-37.670;-63.532;2022-08-02T11:14:33;193.23;;;176.52;;
44036;SDS011;62488;-37.670;-63.532;2022-08-02T11:19:30;44.05;;;40.08;;
44036;SDS011;62488;-37.670;-63.532;2022-08-02T11:22:01;29.48;;;26.58;;
44036;SDS011;62488;-37.670;-63.532;2022-08-02T11:24:33;37.20;;;33.42;;
44036;SDS011;62488;-37.670;-63.532;2022-08-02T11:27:04;48.95;;;44.28;;
44036;SDS011;62488;-37.670;-63.532;2022-08-02T11:32:20;31.73;;;28.67;;
44036;SDS011;62488;-37.670;-63.532;2022-08-02T11:34:50;26.98;;;24.23;;
44036;SDS011;62488;-37.670;-63.532;2022-08-02T11:39:56;25.65;;;22.40;;
44036;SDS011;62488;-37.670;-63.532;2022-08-02T11:42:32;28.75;;;21.95;;
44036;SDS011;62488;-37.670;-63.532;2022-08-02T11:45:02;28.98;;;21.65;;
44036;SDS011;62488;-37.670;-63.532;2022-08-02T11:47:30;33.38;;;21.55;;
44036;SDS011;62488;-37.670;-63.532;2022-08-02T11:50:07;27.52;;;24.85;;
44036;SDS011;62488;-37.670;-63.532;2022-08-02T11:52:35;24.02;;;21.58;;
44036;SDS011;62488;-37.670;-63.532;2022-08-02T11:55:04;23.55;;;21.05;;
44036;SDS011;62488;-37.670;-63.532;2022-08-02T11:57:33;28.75;;;20.27;;
44036;SDS011;62488;-37.670;-63.532;2022-08-02T12:00:01;21.95;;;19.77;;
44036;SDS011;62488;-37.670;-63.532;2022-08-02T12:02:29;20.00;;;18.02;;
44036;SDS011;62488;-37.670;-63.532;2022-08-02T12:04:59;23.42;;;18.05;;
44036;SDS011;62488;-37.670;-63.532;2022-08-02T12:07:33;19.60;;;16.80;;
44036;SDS011;62488;-37.670;-63.532;2022-08-02T12:10:06;18.00;;;16.38;;
44036;SDS011;62488;-37.670;-63.532;2022-08-02T12:12:48;18.85;;;16.83;;
44036;SDS011;62488;-37.670;-63.532;2022-08-02T12:15:38;20.92;;;18.60;;
44036;SDS011;62488;-37.670;-63.532;2022-08-02T12:18:10;22.63;;;18.02;;
44036;SDS011;62488;-37.670;-63.532;2022-08-02T12:21:22;19.20;;;16.33;;
44036;SDS011;62488;-37.670;-63.532;2022-08-02T12:23:52;19.25;;;17.25;;
44036;SDS011;62488;-37.670;-63.532;2022-08-02T12:26:19;21.13;;;17.73;;
44036;SDS011;62488;-37.670;-63.532;2022-08-02T12:28:46;18.92;;;16.73;;
44036;SDS011;62488;-37.670;-63.532;2022-08-02T12:31:25;29.00;;;17.50;;
44036;SDS011;62488;-37.670;-63.532;2022-08-02T12:34:12;23.00;;;17.73;;
44036;SDS011;62488;-37.670;-63.532;2022-08-02T12:39:34;16.25;;;14.70;;
44036;SDS011;62488;-37.670;-63.532;2022-08-02T12:42:07;17.58;;;15.80;;
44036;SDS011;62488;-37.670;-63.532;2022-08-02T12:44:49;17.00;;;15.07;;
44036;SDS011;62488;-37.670;-63.532;2022-08-02T12:47:17;19.30;;;15.63;;
44036;SDS011;62488;-37.670;-63.532;2022-08-02T12:49:46;17.55;;;15.95;;
44036;SDS011;62488;-37.670;-63.532;2022-08-02T12:52:31;17.10;;;14.65;;
44036;SDS011;62488;-37.670;-63.532;2022-08-02T12:55:13;17.83;;;16.02;;
44036;SDS011;62488;-37.670;-63.532;2022-08-02T12:57:54;21.17;;;14.15;;
44036;SDS011;62488;-37.670;-63.532;2022-08-02T13:00:33;17.00;;;15.20;;
44036;SDS011;62488;-37.670;-63.532;2022-08-02T13:03:02;16.92;;;15.02;;
44036;SDS011;62488;-37.670;-63.532;2022-08-02T13:05:31;21.98;;;16.25;;
44036;SDS011;62488;-37.670;-63.532;2022-08-02T13:08:00;17.00;;;15.32;;
44036;SDS011;62488;-37.670;-63.532;2022-08-02T13:10:28;20.27;;;15.50;;
44036;SDS011;62488;-37.670;-63.532;2022-08-02T13:12:55;20.70;;;13.50;;
44036;SDS011;62488;-37.670;-63.532;2022-08-02T13:15:22;19.67;;;14.35;;
44036;SDS011;62488;-37.670;-63.532;2022-08-02T13:17:49;19.20;;;13.73;;
44036;SDS011;62488;-37.670;-63.532;2022-08-02T13:20:17;18.77;;;14.50;;
44036;SDS011;62488;-37.670;-63.532;2022-08-02T13:22:44;25.67;;;13.80;;
44036;SDS011;62488;-37.670;-63.532;2022-08-02T13:25:11;17.10;;;12.90;;
44036;SDS011;62488;-37.670;-63.532;2022-08-02T13:27:38;13.95;;;12.48;;
44036;SDS011;62488;-37.670;-63.532;2022-08-02T13:30:05;16.70;;;13.27;;
44036;SDS011;62488;-37.670;-63.532;2022-08-02T13:32:33;13.30;;;12.00;;
44036;SDS011;62488;-37.670;-63.532;2022-08-02T13:35:01;17.95;;;12.95;;
44036;SDS011;62488;-37.670;-63.532;2022-08-02T13:37:29;16.77;;;13.52;;
44036;SDS011;62488;-37.670;-63.532;2022-08-02T13:39:56;13.57;;;12.18;;
44036;SDS011;62488;-37.670;-63.532;2022-08-02T13:42:23;17.00;;;12.77;;
44036;SDS011;62488;-37.670;-63.532;2022-08-02T13:44:50;14.85;;;13.18;;
44036;SDS011;62488;-37.670;-63.532;2022-08-02T13:47:17;17.58;;;13.02;;
44036;SDS011;62488;-37.670;-63.532;2022-08-02T13:49:44;15.13;;;13.52;;
44036;SDS011;62488;-37.670;-63.532;2022-08-02T13:52:15;14.05;;;12.60;;
44036;SDS011;62488;-37.670;-63.532;2022-08-02T13:54:42;27.25;;;13.93;;
44036;SDS011;62488;-37.670;-63.532;2022-08-02T13:57:09;14.98;;;13.02;;
44036;SDS011;62488;-37.670;-63.532;2022-08-02T13:59:37;17.73;;;14.70;;
44036;SDS011;62488;-37.670;-63.532;2022-08-02T14:02:04;19.50;;;14.68;;
44036;SDS011;62488;-37.670;-63.532;2022-08-02T14:04:31;17.42;;;13.82;;
44036;SDS011;62488;-37.670;-63.532;2022-08-02T14:06:59;16.30;;;14.63;;
44036;SDS011;62488;-37.670;-63.532;2022-08-02T14:09:26;14.88;;;13.00;;
44036;SDS011;62488;-37.670;-63.532;2022-08-02T14:12:01;14.05;;;12.75;;
44036;SDS011;62488;-37.670;-63.532;2022-08-02T14:14:29;16.92;;;14.18;;
44036;SDS011;62488;-37.670;-63.532;2022-08-02T14:16:56;17.60;;;12.70;;
44036;SDS011;62488;-37.670;-63.532;2022-08-02T14:19:23;13.95;;;11.75;;
44036;SDS011;62488;-37.670;-63.532;2022-08-02T14:21:50;14.40;;;12.98;;
44036;SDS011;62488;-37.670;-63.532;2022-08-02T14:24:18;22.70;;;15.32;;
44036;SDS011;62488;-37.670;-63.532;2022-08-02T14:26:47;17.58;;;13.70;;
44036;SDS011;62488;-37.670;-63.532;2022-08-02T14:29:15;15.98;;;13.10;;
44036;SDS011;62488;-37.670;-63.532;2022-08-02T14:31:42;16.10;;;14.50;;
44036;SDS011;62488;-37.670;-63.532;2022-08-02T14:34:10;16.08;;;13.75;;
44036;SDS011;62488;-37.670;-63.532;2022-08-02T14:36:38;18.70;;;14.65;;
44036;SDS011;62488;-37.670;-63.532;2022-08-02T14:39:05;16.08;;;14.55;;
44036;SDS011;62488;-37.670;-63.532;2022-08-02T14:41:33;18.20;;;13.82;;
44036;SDS011;62488;-37.670;-63.532;2022-08-02T14:44:02;23.92;;;13.60;;
44036;SDS011;62488;-37.670;-63.532;2022-08-02T14:46:32;17.52;;;14.63;;